sensor_id;sensor_type;location;lat;lon;timestamp;P1;durP1;ratioP1;P2;durP2;ratioP2
84820;SDS011;75060;52.510;13.454;2023-12-28T00:01:05;8.55;;;4.68;;
84820;SDS011;75060;52.510;13.454;2023-12-28T00:03:31;10.20;;;6.27;;
84820;SDS011;75060;52.510;13.454;2023-12-28T00:05:56;7.22;;;5.38;;
84820;SDS011;75060;52.510;13.454;2023-12-28T00:08:21;10.60;;;5.93;;
84820;SDS011;75060;52.510;13.454;2023-12-28T00:10:46;7.67;;;5.50;;
84820;SDS011;75060;52.510;13.454;2023-12-28T00:13:12;7.72;;;5.00;;
84820;SDS011;75060;52.510;13.454;2023-12-28T00:15:37;8.10;;;4.68;;
84820;SDS011;75060;52.510;13.454;2023-12-28T00:18:03;9.90;;;5.83;;
84820;SDS011;75060;52.510;13.454;2023-12-28T00:20:28;5.85;;;4.60;;
84820;SDS011;75060;52.510;13.454;2023-12-28T00:22:53;9.30;;;4.47;;
84820;SDS011;75060;52.510;13.454;2023-12-28T00:25:19;8.38;;;4.65;;
84820;SDS011;75060;52.510;13.454;2023-12-28T00:27:44;8.10;;;4.13;;
84820;SDS011;75060;52.510;13.454;2023-12-28T00:30:11;11.30;;;4.97;;
84820;SDS011;75060;52.510;13.454;2023-12-28T00:32:36;9.73;;;4.75;;
84820;SDS011;75060;52.510;13.454;2023-12-28T00:35:02;9.63;;;5.53;;
84820;SDS011;75060;52.510;13.454;2023-12-28T00:37:29;7.82;;;4.70;;
84820;SDS011;75060;52.510;13.454;2023-12-28T00:39:54;6.63;;;4.85;;
84820;SDS011;75060;52.510;13.454;2023-12-28T00:42:19;9.93;;;5.35;;
84820;SDS011;75060;52.510;13.454;2023-12-28T00:44:45;9.93;;;5.95;;
84820;SDS011;75060;52.510;13.454;2023-12-28T00:47:10;9.20;;;4.53;;
84820;SDS011;75060;52.510;13.454;2023-12-28T00:49:36;7.30;;;3.80;;
84820;SDS011;75060;52.510;13.454;2023-12-28T00:52:01;8.30;;;4.63;;
84820;SDS011;75060;52.510;13.454;2023-12-28T00:54:27;8.35;;;4.10;;
84820;SDS011;75060;52.510;13.454;2023-12-28T00:56:52;6.55;;;4.70;;
84820;SDS011;75060;52.510;13.454;2023-12-28T00:59:18;6.85;;;3.95;;
84820;SDS011;75060;52.510;13.454;2023-12-28T01:01:44;7.30;;;4.68;;
84820;SDS011;75060;52.510;13.454;2023-12-28T01:04:10;7.72;;;4.55;;
84820;SDS011;75060;52.510;13.454;2023-12-28T01:06:36;7.55;;;4.93;;
84820;SDS011;75060;52.510;13.454;2023-12-28T01:09:05;6.63;;;5.13;;
84820;SDS011;75060;52.510;13.454;2023-12-28T01:11:31;6.65;;;4.38;;
84820;SDS011;75060;52.510;13.454;2023-12-28T01:13:57;7.35;;;3.88;;
84820;SDS011;75060;52.510;13.454;2023-12-28T01:16:24;6.95;;;4.75;;
84820;SDS011;75060;52.510;13.454;2023-12-28T01:18:49;8.18;;;4.88;;
84820;SDS011;75060;52.510;13.454;2023-12-28T01:21:14;5.33;;;3.57;;
84820;SDS011;75060;52.510;13.454;2023-12-28T01:23:39;6.03;;;4.23;;
84820;SDS011;75060;52.510;13.454;2023-12-28T01:26:05;6.10;;;4.37;;
84820;SDS011;75060;52.510;13.454;2023-12-28T01:28:30;6.22;;;4.18;;
84820;SDS011;75060;52.510;13.454;2023-12-28T01:30:55;6.22;;;4.25;;
84820;SDS011;75060;52.510;13.454;2023-12-28T01:33:21;5.23;;;3.23;;
84820;SDS011;75060;52.510;13.454;2023-12-28T01:35:46;9.50;;;3.90;;
84820;SDS011;75060;52.510;13.454;2023-12-28T01:38:11;6.10;;;4.77;;
84820;SDS011;75060;52.510;13.454;2023-12-28T01:40:36;6.83;;;4.47;;
84820;SDS011;75060;52.510;13.454;2023-12-28T01:43:02;5.67;;;4.23;;
84820;SDS011;75060;52.510;13.454;2023-12-28T01:45:27;6.82;;;3.70;;
84820;SDS011;75060;52.510;13.454;2023-12-28T01:47:53;6.55;;;3.70;;
84820;SDS011;75060;52.510;13.454;2023-12-28T01:50:22;6.97;;;4.38;;
84820;SDS011;75060;52.510;13.454;2023-12-28T01:52:49;7.50;;;3.90;;
84820;SDS011;75060;52.510;13.454;2023-12-28T01:55:15;7.97;;;4.47;;
84820;SDS011;75060;52.510;13.454;2023-12-28T01:57:41;4.15;;;3.63;;
84820;SDS011;75060;52.510;13.454;2023-12-28T02:00:07;7.38;;;3.58;;
84820;SDS011;75060;52.510;13.454;2023-12-28T02:02:32;7.85;;;3.78;;
84820;SDS011;75060;52.510;13.454;2023-12-28T02:04:59;10.13;;;4.80;;
84820;SDS011;75060;52.510;13.454;2023-12-28T02:07:25;5.28;;;3.63;;
84820;SDS011;75060;52.510;13.454;2023-12-28T02:09:50;7.05;;;3.60;;
84820;SDS011;75060;52.510;13.454;2023-12-28T02:12:15;6.87;;;3.63;;
84820;SDS011;75060;52.510;13.454;2023-12-28T02:14:40;6.37;;;3.53;;
84820;SDS011;75060;52.510;13.454;2023-12-28T02:17:07;3.60;;;3.15;;
84820;SDS011;75060;52.510;13.454;2023-12-28T02:19:46;3.30;;;3.00;;
84820;SDS011;75060;52.510;13.454;2023-12-28T02:22:15;7.50;;;3.50;;
84820;SDS011;75060;52.510;13.454;2023-12-28T02:27:23;4.93;;;3.05;;
84820;SDS011;75060;52.510;13.454;2023-12-28T02:29:48;6.37;;;2.80;;
84820;SDS011;75060;52.510;13.454;2023-12-28T02:32:13;4.03;;;2.60;;
84820;SDS011;75060;52.510;13.454;2023-12-28T02:34:42;4.05;;;2.60;;
84820;SDS011;75060;52.510;13.454;2023-12-28T02:37:09;3.88;;;2.22;;
84820;SDS011;75060;52.510;13.454;2023-12-28T02:39:41;3.13;;;2.25;;
84820;SDS011;75060;52.510;13.454;2023-12-28T02:42:09;2.67;;;2.30;;
84820;SDS011;75060;52.510;13.454;2023-12-28T02:44:34;2.90;;;2.53;;
84820;SDS011;75060;52.510;13.454;2023-12-28T02:46:59;2.80;;;2.20;;
84820;SDS011;75060;52.510;13.454;2023-12-28T02:49:25;3.80;;;2.13;;
84820;SDS011;75060;52.510;13.454;2023-12-28T02:51:50;2.37;;;1.93;;
84820;SDS011;75060;52.510;13.454;2023-12-28T02:54:15;2.63;;;2.17;;
84820;SDS011;75060;52.510;13.454;2023-12-28T02:56:40;2.47;;;2.10;;
84820;SDS011;75060;52.510;13.454;2023-12-28T02:59:06;2.53;;;2.33;;
84820;SDS011;75060;52.510;13.454;2023-12-28T03:01:31;3.00;;;1.57;;
84820;SDS011;75060;52.510;13.454;2023-12-28T03:03:56;2.37;;;1.80;;
84820;SDS011;75060;52.510;13.454;2023-12-28T03:06:22;2.37;;;2.00;;
84820;SDS011;75060;52.510;13.454;2023-12-28T03:08:47;2.10;;;1.70;;
84820;SDS011;75060;52.510;13.454;2023-12-28T03:11:12;4.30;;;2.13;;
84820;SDS011;75060;52.510;13.454;2023-12-28T03:13:37;2.03;;;1.57;;
84820;SDS011;75060;52.510;13.454;2023-12-28T03:16:03;6.60;;;1.90;;
84820;SDS011;75060;52.510;13.454;2023-12-28T03:18:28;2.17;;;1.48;;
84820;SDS011;75060;52.510;13.454;2023-12-28T03:20:53;3.37;;;1.93;;
84820;SDS011;75060;52.510;13.454;2023-12-28T03:23:19;2.90;;;1.98;;
84820;SDS011;75060;52.510;13.454;2023-12-28T03:25:45;2.13;;;1.47;;
84820;SDS011;75060;52.510;13.454;2023-12-28T03:28:10;2.50;;;2.03;;
84820;SDS011;75060;52.510;13.454;2023-12-28T03:30:35;2.97;;;1.73;;
84820;SDS011;75060;52.510;13.454;2023-12-28T03:33:00;2.93;;;1.90;;
84820;SDS011;75060;52.510;13.454;2023-12-28T03:35:26;1.93;;;1.30;;
84820;SDS011;75060;52.510;13.454;2023-12-28T03:37:51;2.50;;;1.80;;
84820;SDS011;75060;52.510;13.454;2023-12-28T03:40:16;4.27;;;1.80;;
84820;SDS011;75060;52.510;13.454;2023-12-28T03:42:41;2.60;;;1.70;;
84820;SDS011;75060;52.510;13.454;2023-12-28T03:45:07;2.27;;;1.80;;
84820;SDS011;75060;52.510;13.454;2023-12-28T03:47:32;2.75;;;1.50;;
84820;SDS011;75060;52.510;13.454;2023-12-28T03:49:57;2.63;;;2.00;;
84820;SDS011;75060;52.510;13.454;2023-12-28T03:52:25;2.57;;;2.00;;
84820;SDS011;75060;52.510;13.454;2023-12-28T03:54:51;3.53;;;1.80;;
84820;SDS011;75060;52.510;13.454;2023-12-28T03:57:16;2.07;;;1.83;;
84820;SDS011;75060;52.510;13.454;2023-12-28T03:59:41;2.73;;;1.57;;
84820;SDS011;75060;52.510;13.454;2023-12-28T04:02:07;3.63;;;1.97;;
84820;SDS011;75060;52.510;13.454;2023-12-28T04:04:32;1.87;;;1.50;;
84820;SDS011;75060;52.510;13.454;2023-12-28T04:07:01;2.85;;;1.65;;
84820;SDS011;75060;52.510;13.454;2023-12-28T04:09:27;3.00;;;2.10;;
84820;SDS011;75060;52.510;13.454;2023-12-28T04:11:52;5.55;;;1.50;;
84820;SDS011;75060;52.510;13.454;2023-12-28T04:14:18;1.65;;;1.50;;
84820;SDS011;75060;52.510;13.454;2023-12-28T04:16:44;1.67;;;1.58;;
84820;SDS011;75060;52.510;13.454;2023-12-28T04:19:09;2.20;;;1.75;;
84820;SDS011;75060;52.510;13.454;2023-12-28T04:21:35;4.53;;;1.97;;
84820;SDS011;75060;52.510;13.454;2023-12-28T04:24:00;2.10;;;1.47;;
84820;SDS011;75060;52.510;13.454;2023-12-28T04:26:25;2.92;;;1.80;;
84820;SDS011;75060;52.510;13.454;2023-12-28T04:28:50;3.27;;;1.77;;
84820;SDS011;75060;52.510;13.454;2023-12-28T04:31:16;3.23;;;2.07;;
84820;SDS011;75060;52.510;13.454;2023-12-28T04:33:41;5.03;;;1.93;;
84820;SDS011;75060;52.510;13.454;2023-12-28T04:36:06;2.17;;;1.60;;
84820;SDS011;75060;52.510;13.454;2023-12-28T04:38:32;2.97;;;1.63;;
84820;SDS011;75060;52.510;13.454;2023-12-28T04:40:58;2.85;;;1.70;;
84820;SDS011;75060;52.510;13.454;2023-12-28T04:43:23;2.38;;;1.45;;
84820;SDS011;75060;52.510;13.454;2023-12-28T04:48:17;2.95;;;1.92;;
84820;SDS011;75060;52.510;13.454;2023-12-28T04:50:48;1.52;;;1.40;;
84820;SDS011;75060;52.510;13.454;2023-12-28T04:53:14;2.50;;;1.80;;
84820;SDS011;75060;52.510;13.454;2023-12-28T04:55:39;2.60;;;1.83;;
84820;SDS011;75060;52.510;13.454;2023-12-28T04:58:04;2.03;;;1.65;;
84820;SDS011;75060;52.510;13.454;2023-12-28T05:00:30;2.43;;;1.70;;
84820;SDS011;75060;52.510;13.454;2023-12-28T05:02:55;3.30;;;1.67;;
84820;SDS011;75060;52.510;13.454;2023-12-28T05:05:20;2.15;;;1.42;;
84820;SDS011;75060;52.510;13.454;2023-12-28T05:07:46;4.20;;;1.73;;
84820;SDS011;75060;52.510;13.454;2023-12-28T05:10:11;2.17;;;1.50;;
84820;SDS011;75060;52.510;13.454;2023-12-28T05:12:36;2.00;;;1.75;;
84820;SDS011;75060;52.510;13.454;2023-12-28T05:15:02;2.05;;;1.60;;
84820;SDS011;75060;52.510;13.454;2023-12-28T05:17:27;2.53;;;1.58;;
84820;SDS011;75060;52.510;13.454;2023-12-28T05:19:52;2.10;;;1.90;;
84820;SDS011;75060;52.510;13.454;2023-12-28T05:22:18;2.50;;;1.52;;
84820;SDS011;75060;52.510;13.454;2023-12-28T05:24:43;2.55;;;1.88;;
84820;SDS011;75060;52.510;13.454;2023-12-28T05:27:08;2.58;;;2.00;;
84820;SDS011;75060;52.510;13.454;2023-12-28T05:29:34;2.53;;;1.67;;
84820;SDS011;75060;52.510;13.454;2023-12-28T05:31:59;2.03;;;1.80;;
84820;SDS011;75060;52.510;13.454;2023-12-28T05:34:24;2.27;;;1.70;;
84820;SDS011;75060;52.510;13.454;2023-12-28T05:36:50;2.67;;;1.97;;
84820;SDS011;75060;52.510;13.454;2023-12-28T05:39:15;2.13;;;1.53;;
84820;SDS011;75060;52.510;13.454;2023-12-28T05:41:40;3.40;;;1.67;;
84820;SDS011;75060;52.510;13.454;2023-12-28T05:44:05;2.28;;;2.08;;
84820;SDS011;75060;52.510;13.454;2023-12-28T05:46:31;2.35;;;1.63;;
84820;SDS011;75060;52.510;13.454;2023-12-28T05:48:56;2.75;;;1.83;;
84820;SDS011;75060;52.510;13.454;2023-12-28T05:51:22;3.33;;;1.73;;
84820;SDS011;75060;52.510;13.454;2023-12-28T05:53:47;3.63;;;1.97;;
84820;SDS011;75060;52.510;13.454;2023-12-28T05:56:12;2.53;;;2.15;;
84820;SDS011;75060;52.510;13.454;2023-12-28T05:58:38;2.80;;;1.77;;
84820;SDS011;75060;52.510;13.454;2023-12-28T06:01:04;3.78;;;2.15;;
84820;SDS011;75060;52.510;13.454;2023-12-28T06:03:30;2.42;;;1.45;;
84820;SDS011;75060;52.510;13.454;2023-12-28T06:05:55;2.97;;;1.70;;
84820;SDS011;75060;52.510;13.454;2023-12-28T06:08:21;2.22;;;1.75;;
84820;SDS011;75060;52.510;13.454;2023-12-28T06:10:46;2.65;;;1.70;;
84820;SDS011;75060;52.510;13.454;2023-12-28T06:13:11;1.70;;;1.60;;
84820;SDS011;75060;52.510;13.454;2023-12-28T06:15:37;1.67;;;1.53;;
84820;SDS011;75060;52.510;13.454;2023-12-28T06:18:02;1.73;;;1.45;;
84820;SDS011;75060;52.510;13.454;2023-12-28T06:20:29;2.63;;;1.70;;
84820;SDS011;75060;52.510;13.454;2023-12-28T06:22:54;8.20;;;4.17;;
84820;SDS011;75060;52.510;13.454;2023-12-28T06:25:20;2.78;;;2.20;;
84820;SDS011;75060;52.510;13.454;2023-12-28T06:27:45;2.05;;;1.60;;
84820;SDS011;75060;52.510;13.454;2023-12-28T06:30:10;3.03;;;1.90;;
84820;SDS011;75060;52.510;13.454;2023-12-28T06:32:36;2.55;;;1.58;;
84820;SDS011;75060;52.510;13.454;2023-12-28T06:35:01;2.37;;;1.93;;
84820;SDS011;75060;52.510;13.454;2023-12-28T06:37:27;3.97;;;1.88;;
84820;SDS011;75060;52.510;13.454;2023-12-28T06:39:52;3.30;;;2.10;;
84820;SDS011;75060;52.510;13.454;2023-12-28T06:42:17;2.38;;;1.60;;
84820;SDS011;75060;52.510;13.454;2023-12-28T06:44:43;2.90;;;1.60;;
84820;SDS011;75060;52.510;13.454;2023-12-28T06:47:08;3.10;;;1.70;;
84820;SDS011;75060;52.510;13.454;2023-12-28T06:49:33;2.97;;;2.67;;
84820;SDS011;75060;52.510;13.454;2023-12-28T06:51:58;2.00;;;1.77;;
84820;SDS011;75060;52.510;13.454;2023-12-28T06:54:24;2.43;;;1.60;;
84820;SDS011;75060;52.510;13.454;2023-12-28T06:56:49;3.30;;;1.65;;
84820;SDS011;75060;52.510;13.454;2023-12-28T06:59:16;1.95;;;1.60;;
84820;SDS011;75060;52.510;13.454;2023-12-28T07:01:41;12.05;;;5.82;;
84820;SDS011;75060;52.510;13.454;2023-12-28T07:04:07;4.25;;;2.55;;
84820;SDS011;75060;52.510;13.454;2023-12-28T07:06:32;2.53;;;1.95;;
84820;SDS011;75060;52.510;13.454;2023-12-28T07:08:58;2.72;;;1.73;;
84820;SDS011;75060;52.510;13.454;2023-12-28T07:11:23;4.45;;;1.58;;
84820;SDS011;75060;52.510;13.454;2023-12-28T07:13:48;2.85;;;2.00;;
84820;SDS011;75060;52.510;13.454;2023-12-28T07:16:14;3.17;;;1.80;;
84820;SDS011;75060;52.510;13.454;2023-12-28T07:18:40;2.83;;;1.92;;
84820;SDS011;75060;52.510;13.454;2023-12-28T07:21:06;2.65;;;1.58;;
84820;SDS011;75060;52.510;13.454;2023-12-28T07:23:34;2.63;;;1.50;;
84820;SDS011;75060;52.510;13.454;2023-12-28T07:25:59;3.17;;;2.10;;
84820;SDS011;75060;52.510;13.454;2023-12-28T07:28:25;3.43;;;1.77;;
84820;SDS011;75060;52.510;13.454;2023-12-28T07:30:50;2.63;;;1.60;;
84820;SDS011;75060;52.510;13.454;2023-12-28T07:33:15;4.10;;;1.80;;
84820;SDS011;75060;52.510;13.454;2023-12-28T07:35:40;3.45;;;2.00;;
84820;SDS011;75060;52.510;13.454;2023-12-28T07:38:06;4.40;;;2.27;;
84820;SDS011;75060;52.510;13.454;2023-12-28T07:40:31;2.90;;;1.60;;
84820;SDS011;75060;52.510;13.454;2023-12-28T07:42:57;4.40;;;2.10;;
84820;SDS011;75060;52.510;13.454;2023-12-28T07:45:22;2.97;;;2.13;;
84820;SDS011;75060;52.510;13.454;2023-12-28T07:47:49;3.05;;;1.83;;
84820;SDS011;75060;52.510;13.454;2023-12-28T07:50:16;2.13;;;1.73;;
84820;SDS011;75060;52.510;13.454;2023-12-28T07:52:41;2.72;;;1.90;;
84820;SDS011;75060;52.510;13.454;2023-12-28T07:55:07;2.50;;;1.58;;
84820;SDS011;75060;52.510;13.454;2023-12-28T07:57:34;2.28;;;1.83;;
84820;SDS011;75060;52.510;13.454;2023-12-28T08:00:00;3.72;;;2.38;;
84820;SDS011;75060;52.510;13.454;2023-12-28T08:02:27;3.83;;;2.80;;
84820;SDS011;75060;52.510;13.454;2023-12-28T08:04:53;3.53;;;2.17;;
84820;SDS011;75060;52.510;13.454;2023-12-28T08:07:18;10.75;;;3.65;;
84820;SDS011;75060;52.510;13.454;2023-12-28T08:09:44;3.50;;;2.03;;
84820;SDS011;75060;52.510;13.454;2023-12-28T08:12:09;5.78;;;1.90;;
84820;SDS011;75060;52.510;13.454;2023-12-28T08:14:34;3.47;;;2.00;;
84820;SDS011;75060;52.510;13.454;2023-12-28T08:17:00;3.55;;;1.85;;
84820;SDS011;75060;52.510;13.454;2023-12-28T08:19:25;3.15;;;2.03;;
84820;SDS011;75060;52.510;13.454;2023-12-28T08:21:50;2.72;;;2.22;;
84820;SDS011;75060;52.510;13.454;2023-12-28T08:24:16;3.57;;;1.53;;
84820;SDS011;75060;52.510;13.454;2023-12-28T08:26:41;2.83;;;2.17;;
84820;SDS011;75060;52.510;13.454;2023-12-28T08:29:07;3.78;;;1.98;;
84820;SDS011;75060;52.510;13.454;2023-12-28T08:31:32;3.90;;;1.90;;
84820;SDS011;75060;52.510;13.454;2023-12-28T08:33:57;3.22;;;2.10;;
84820;SDS011;75060;52.510;13.454;2023-12-28T08:36:23;2.42;;;1.95;;
84820;SDS011;75060;52.510;13.454;2023-12-28T08:38:48;3.55;;;1.95;;
84820;SDS011;75060;52.510;13.454;2023-12-28T08:41:17;3.65;;;2.42;;
84820;SDS011;75060;52.510;13.454;2023-12-28T08:43:46;1.98;;;1.77;;
84820;SDS011;75060;52.510;13.454;2023-12-28T08:46:12;4.00;;;2.05;;
84820;SDS011;75060;52.510;13.454;2023-12-28T08:48:39;3.50;;;1.95;;
84820;SDS011;75060;52.510;13.454;2023-12-28T08:51:04;2.63;;;2.10;;
84820;SDS011;75060;52.510;13.454;2023-12-28T08:53:30;31.77;;;14.10;;
84820;SDS011;75060;52.510;13.454;2023-12-28T08:55:55;7.70;;;4.50;;
84820;SDS011;75060;52.510;13.454;2023-12-28T08:58:20;5.67;;;3.07;;
84820;SDS011;75060;52.510;13.454;2023-12-28T09:00:45;17.83;;;8.77;;
84820;SDS011;75060;52.510;13.454;2023-12-28T09:03:11;4.15;;;3.00;;
84820;SDS011;75060;52.510;13.454;2023-12-28T09:05:37;3.33;;;2.22;;
84820;SDS011;75060;52.510;13.454;2023-12-28T09:08:02;4.73;;;3.13;;
84820;SDS011;75060;52.510;13.454;2023-12-28T09:10:28;3.72;;;2.33;;
84820;SDS011;75060;52.510;13.454;2023-12-28T09:12:53;6.77;;;2.30;;
84820;SDS011;75060;52.510;13.454;2023-12-28T09:15:18;3.17;;;2.40;;
84820;SDS011;75060;52.510;13.454;2023-12-28T09:17:43;3.15;;;2.15;;
84820;SDS011;75060;52.510;13.454;2023-12-28T09:20:09;3.35;;;2.33;;
84820;SDS011;75060;52.510;13.454;2023-12-28T09:22:34;2.90;;;2.30;;
84820;SDS011;75060;52.510;13.454;2023-12-28T09:25:00;4.57;;;2.50;;
84820;SDS011;75060;52.510;13.454;2023-12-28T09:27:25;4.07;;;2.20;;
84820;SDS011;75060;52.510;13.454;2023-12-28T09:29:50;3.70;;;2.10;;
84820;SDS011;75060;52.510;13.454;2023-12-28T09:32:16;2.50;;;2.10;;
84820;SDS011;75060;52.510;13.454;2023-12-28T09:34:42;5.50;;;3.15;;
84820;SDS011;75060;52.510;13.454;2023-12-28T09:37:07;5.77;;;2.73;;
84820;SDS011;75060;52.510;13.454;2023-12-28T09:39:32;3.47;;;2.70;;
84820;SDS011;75060;52.510;13.454;2023-12-28T09:42:04;4.63;;;3.20;;
84820;SDS011;75060;52.510;13.454;2023-12-28T09:44:31;3.63;;;2.90;;
84820;SDS011;75060;52.510;13.454;2023-12-28T09:46:57;3.67;;;2.47;;
84820;SDS011;75060;52.510;13.454;2023-12-28T09:49:23;5.22;;;3.00;;
84820;SDS011;75060;52.510;13.454;2023-12-28T09:51:48;6.93;;;3.45;;
84820;SDS011;75060;52.510;13.454;2023-12-28T09:54:14;3.92;;;2.55;;
84820;SDS011;75060;52.510;13.454;2023-12-28T09:56:40;7.22;;;3.05;;
84820;SDS011;75060;52.510;13.454;2023-12-28T09:59:06;4.65;;;2.92;;
84820;SDS011;75060;52.510;13.454;2023-12-28T10:01:32;3.35;;;2.83;;
84820;SDS011;75060;52.510;13.454;2023-12-28T10:03:59;5.20;;;2.80;;
84820;SDS011;75060;52.510;13.454;2023-12-28T10:06:27;2.93;;;2.10;;
84820;SDS011;75060;52.510;13.454;2023-12-28T10:08:58;4.80;;;2.90;;
84820;SDS011;75060;52.510;13.454;2023-12-28T10:11:30;3.33;;;2.40;;
84820;SDS011;75060;52.510;13.454;2023-12-28T10:14:05;4.55;;;2.85;;
84820;SDS011;75060;52.510;13.454;2023-12-28T10:16:57;4.15;;;2.72;;
84820;SDS011;75060;52.510;13.454;2023-12-28T10:19:22;3.58;;;2.58;;
84820;SDS011;75060;52.510;13.454;2023-12-28T10:21:48;3.83;;;2.88;;
84820;SDS011;75060;52.510;13.454;2023-12-28T10:24:14;2.25;;;1.92;;
84820;SDS011;75060;52.510;13.454;2023-12-28T10:26:39;2.83;;;2.50;;
84820;SDS011;75060;52.510;13.454;2023-12-28T10:29:05;5.35;;;2.83;;
84820;SDS011;75060;52.510;13.454;2023-12-28T10:31:30;3.30;;;2.58;;
84820;SDS011;75060;52.510;13.454;2023-12-28T10:33:58;3.80;;;2.20;;
84820;SDS011;75060;52.510;13.454;2023-12-28T10:36:27;4.53;;;2.30;;
84820;SDS011;75060;52.510;13.454;2023-12-28T10:38:52;4.50;;;2.30;;
84820;SDS011;75060;52.510;13.454;2023-12-28T10:41:18;3.17;;;2.63;;
84820;SDS011;75060;52.510;13.454;2023-12-28T10:43:54;4.40;;;2.58;;
84820;SDS011;75060;52.510;13.454;2023-12-28T10:46:27;3.83;;;2.40;;
84820;SDS011;75060;52.510;13.454;2023-12-28T10:48:53;2.92;;;2.00;;
84820;SDS011;75060;52.510;13.454;2023-12-28T10:51:24;4.43;;;2.28;;
84820;SDS011;75060;52.510;13.454;2023-12-28T10:54:05;4.35;;;2.83;;
84820;SDS011;75060;52.510;13.454;2023-12-28T10:56:45;3.80;;;2.47;;
84820;SDS011;75060;52.510;13.454;2023-12-28T11:02:09;5.80;;;2.63;;
84820;SDS011;75060;52.510;13.454;2023-12-28T11:04:42;3.42;;;2.60;;
84820;SDS011;75060;52.510;13.454;2023-12-28T11:07:13;4.68;;;2.60;;
84820;SDS011;75060;52.510;13.454;2023-12-28T11:09:41;3.83;;;2.50;;
84820;SDS011;75060;52.510;13.454;2023-12-28T11:12:07;6.18;;;2.80;;
84820;SDS011;75060;52.510;13.454;2023-12-28T11:14:38;3.28;;;2.50;;
84820;SDS011;75060;52.510;13.454;2023-12-28T11:17:05;3.58;;;2.10;;
84820;SDS011;75060;52.510;13.454;2023-12-28T11:19:30;3.00;;;2.35;;
84820;SDS011;75060;52.510;13.454;2023-12-28T11:21:58;5.38;;;2.95;;
84820;SDS011;75060;52.510;13.454;2023-12-28T11:24:25;4.07;;;2.90;;
84820;SDS011;75060;52.510;13.454;2023-12-28T11:26:52;3.03;;;2.25;;
84820;SDS011;75060;52.510;13.454;2023-12-28T11:29:21;3.92;;;2.40;;
84820;SDS011;75060;52.510;13.454;2023-12-28T11:31:52;4.30;;;2.88;;
84820;SDS011;75060;52.510;13.454;2023-12-28T11:34:18;4.82;;;2.58;;
84820;SDS011;75060;52.510;13.454;2023-12-28T11:36:47;4.28;;;2.88;;
84820;SDS011;75060;52.510;13.454;2023-12-28T11:39:20;4.85;;;2.70;;
84820;SDS011;75060;52.510;13.454;2023-12-28T11:41:59;6.68;;;2.45;;
84820;SDS011;75060;52.510;13.454;2023-12-28T11:44:28;4.80;;;2.72;;
84820;SDS011;75060;52.510;13.454;2023-12-28T11:46:54;2.50;;;1.88;;
84820;SDS011;75060;52.510;13.454;2023-12-28T11:49:24;2.60;;;1.87;;
84820;SDS011;75060;52.510;13.454;2023-12-28T11:51:58;6.43;;;2.60;;
84820;SDS011;75060;52.510;13.454;2023-12-28T11:54:24;2.60;;;2.13;;
84820;SDS011;75060;52.510;13.454;2023-12-28T11:56:53;6.30;;;2.10;;
84820;SDS011;75060;52.510;13.454;2023-12-28T11:59:19;2.00;;;1.63;;
84820;SDS011;75060;52.510;13.454;2023-12-28T12:01:51;4.65;;;2.50;;
84820;SDS011;75060;52.510;13.454;2023-12-28T12:04:18;3.50;;;2.22;;
84820;SDS011;75060;52.510;13.454;2023-12-28T12:06:46;2.70;;;2.10;;
84820;SDS011;75060;52.510;13.454;2023-12-28T12:09:13;3.67;;;2.30;;
84820;SDS011;75060;52.510;13.454;2023-12-28T12:11:39;5.55;;;2.88;;
84820;SDS011;75060;52.510;13.454;2023-12-28T12:14:09;4.13;;;2.30;;
84820;SDS011;75060;52.510;13.454;2023-12-28T12:16:35;3.75;;;2.58;;
84820;SDS011;75060;52.510;13.454;2023-12-28T12:19:01;3.42;;;2.00;;
84820;SDS011;75060;52.510;13.454;2023-12-28T12:21:27;5.40;;;2.70;;
84820;SDS011;75060;52.510;13.454;2023-12-28T12:23:52;2.95;;;2.20;;
84820;SDS011;75060;52.510;13.454;2023-12-28T12:26:19;2.72;;;2.03;;
84820;SDS011;75060;52.510;13.454;2023-12-28T12:28:44;6.25;;;2.25;;
84820;SDS011;75060;52.510;13.454;2023-12-28T12:31:09;3.20;;;2.22;;
84820;SDS011;75060;52.510;13.454;2023-12-28T12:33:36;3.20;;;2.08;;
84820;SDS011;75060;52.510;13.454;2023-12-28T12:36:01;4.53;;;2.30;;
84820;SDS011;75060;52.510;13.454;2023-12-28T12:38:27;3.72;;;2.25;;
84820;SDS011;75060;52.510;13.454;2023-12-28T12:40:52;5.88;;;2.38;;
84820;SDS011;75060;52.510;13.454;2023-12-28T12:43:18;3.58;;;2.47;;
84820;SDS011;75060;52.510;13.454;2023-12-28T12:45:44;4.70;;;2.35;;
84820;SDS011;75060;52.510;13.454;2023-12-28T12:48:11;3.33;;;2.47;;
84820;SDS011;75060;52.510;13.454;2023-12-28T12:50:36;3.00;;;2.20;;
84820;SDS011;75060;52.510;13.454;2023-12-28T12:53:04;5.18;;;2.10;;
84820;SDS011;75060;52.510;13.454;2023-12-28T12:55:30;2.70;;;2.42;;
84820;SDS011;75060;52.510;13.454;2023-12-28T12:57:55;4.17;;;2.10;;
84820;SDS011;75060;52.510;13.454;2023-12-28T13:00:21;4.30;;;2.20;;
84820;SDS011;75060;52.510;13.454;2023-12-28T13:02:46;5.32;;;2.30;;
84820;SDS011;75060;52.510;13.454;2023-12-28T13:05:11;4.77;;;2.20;;
84820;SDS011;75060;52.510;13.454;2023-12-28T13:07:37;7.20;;;2.73;;
84820;SDS011;75060;52.510;13.454;2023-12-28T13:10:02;4.73;;;3.10;;
84820;SDS011;75060;52.510;13.454;2023-12-28T13:12:27;3.25;;;2.30;;
84820;SDS011;75060;52.510;13.454;2023-12-28T13:14:53;5.37;;;2.27;;
84820;SDS011;75060;52.510;13.454;2023-12-28T13:17:18;3.33;;;2.00;;
84820;SDS011;75060;52.510;13.454;2023-12-28T13:19:43;2.72;;;2.13;;
84820;SDS011;75060;52.510;13.454;2023-12-28T13:22:08;4.88;;;2.20;;
84820;SDS011;75060;52.510;13.454;2023-12-28T13:24:34;3.83;;;2.40;;
84820;SDS011;75060;52.510;13.454;2023-12-28T13:26:59;2.37;;;1.80;;
84820;SDS011;75060;52.510;13.454;2023-12-28T13:29:25;3.30;;;1.77;;
84820;SDS011;75060;52.510;13.454;2023-12-28T13:31:50;6.35;;;2.65;;
84820;SDS011;75060;52.510;13.454;2023-12-28T13:34:16;6.75;;;2.97;;
84820;SDS011;75060;52.510;13.454;2023-12-28T13:36:43;3.90;;;2.35;;
84820;SDS011;75060;52.510;13.454;2023-12-28T13:39:08;3.45;;;2.22;;
84820;SDS011;75060;52.510;13.454;2023-12-28T13:41:36;6.07;;;2.35;;
84820;SDS011;75060;52.510;13.454;2023-12-28T13:44:01;3.20;;;2.47;;
84820;SDS011;75060;52.510;13.454;2023-12-28T13:46:29;3.90;;;2.15;;
84820;SDS011;75060;52.510;13.454;2023-12-28T13:48:54;4.87;;;2.43;;
84820;SDS011;75060;52.510;13.454;2023-12-28T13:51:19;4.67;;;2.20;;
84820;SDS011;75060;52.510;13.454;2023-12-28T13:53:44;3.58;;;2.20;;
84820;SDS011;75060;52.510;13.454;2023-12-28T13:56:10;2.60;;;2.00;;
84820;SDS011;75060;52.510;13.454;2023-12-28T13:58:35;3.00;;;2.40;;
84820;SDS011;75060;52.510;13.454;2023-12-28T14:01:00;3.63;;;2.27;;
84820;SDS011;75060;52.510;13.454;2023-12-28T14:03:25;3.97;;;2.78;;
84820;SDS011;75060;52.510;13.454;2023-12-28T14:05:51;2.88;;;2.35;;
84820;SDS011;75060;52.510;13.454;2023-12-28T14:08:16;5.57;;;2.80;;
84820;SDS011;75060;52.510;13.454;2023-12-28T14:10:41;3.77;;;2.47;;
84820;SDS011;75060;52.510;13.454;2023-12-28T14:13:07;3.47;;;2.27;;
84820;SDS011;75060;52.510;13.454;2023-12-28T14:15:32;5.50;;;2.30;;
84820;SDS011;75060;52.510;13.454;2023-12-28T14:17:57;3.27;;;2.33;;
84820;SDS011;75060;52.510;13.454;2023-12-28T14:20:22;3.10;;;2.10;;
84820;SDS011;75060;52.510;13.454;2023-12-28T14:22:48;8.03;;;2.83;;
84820;SDS011;75060;52.510;13.454;2023-12-28T14:25:13;3.95;;;2.85;;
84820;SDS011;75060;52.510;13.454;2023-12-28T14:27:39;3.75;;;2.53;;
84820;SDS011;75060;52.510;13.454;2023-12-28T14:30:05;3.13;;;2.17;;
84820;SDS011;75060;52.510;13.454;2023-12-28T14:32:34;3.90;;;2.40;;
84820;SDS011;75060;52.510;13.454;2023-12-28T14:35:00;6.13;;;2.53;;